createdAt,value
2023-04-01T00:01:04.748Z,0.85
2023-04-01T00:03:32.837Z,0.80
2023-04-01T00:06:00.616Z,0.75
2023-04-01T00:08:28.140Z,0.77
2023-04-01T00:10:55.452Z,0.70
2023-04-01T00:13:22.586Z,1.02
2023-04-01T00:15:49.879Z,0.70
2023-04-01T00:18:17.390Z,0.60
2023-04-01T00:20:45.402Z,0.98
2023-04-01T00:23:12.522Z,0.80
2023-04-01T00:25:39.712Z,0.98
2023-04-01T00:28:06.857Z,0.70
2023-04-01T00:30:33.981Z,0.90
2023-04-01T00:33:01.314Z,0.80
2023-04-01T00:35:28.434Z,0.70
2023-04-01T00:37:56.012Z,0.60
2023-04-01T00:40:29.134Z,0.77
2023-04-01T00:42:56.431Z,0.70
2023-04-01T00:45:37.579Z,0.90
2023-04-01T00:48:10.601Z,0.70
2023-04-01T00:50:38.788Z,1.10
2023-04-01T00:53:07.451Z,0.70
2023-04-01T00:55:37.077Z,0.60
2023-04-01T00:58:06.872Z,0.60
2023-04-01T01:00:34.405Z,0.80
2023-04-01T01:03:01.640Z,0.63
2023-04-01T01:05:48.513Z,1.40
2023-04-01T01:08:22.362Z,0.73
2023-04-01T01:10:51.367Z,0.73
2023-04-01T01:15:55.377Z,0.47
2023-04-01T01:18:42.179Z,0.60
2023-04-01T01:21:20.586Z,0.75
2023-04-01T01:23:59.851Z,1.02
2023-04-01T01:26:38.859Z,0.60
2023-04-01T01:29:24.820Z,0.63
2023-04-01T01:32:00.664Z,0.60
2023-04-01T01:34:30.799Z,0.60
2023-04-01T01:37:01.125Z,0.60
2023-04-01T01:39:30.454Z,0.65
2023-04-01T01:42:02.829Z,0.60
2023-04-01T01:44:31.142Z,0.60
2023-04-01T01:46:58.441Z,0.60
2023-04-01T01:49:26.402Z,0.70
2023-04-01T01:51:53.661Z,0.60
2023-04-01T01:54:20.893Z,0.80
2023-04-01T01:56:50.564Z,0.70
2023-04-01T01:59:19.710Z,0.65
2023-04-01T02:01:48.411Z,0.50
2023-04-01T02:04:16.708Z,0.63
2023-04-01T02:06:46.427Z,0.50
2023-04-01T02:09:13.618Z,0.70
2023-04-01T02:11:48.341Z,0.68
2023-04-01T02:14:15.412Z,0.70
2023-04-01T02:17:03.092Z,0.90
2023-04-01T02:19:33.189Z,0.57
2023-04-01T02:22:02.141Z,0.65
2023-04-01T02:26:56.652Z,0.60
2023-04-01T02:29:28.795Z,0.60
2023-04-01T02:31:56.440Z,0.57
2023-04-01T02:34:26.887Z,0.65
2023-04-01T02:36:55.466Z,0.60
2023-04-01T02:39:23.575Z,0.80
2023-04-01T02:41:50.940Z,0.60
2023-04-01T02:44:18.146Z,0.52
2023-04-01T02:46:45.526Z,0.60
2023-04-01T02:49:12.782Z,0.80
2023-04-01T02:51:39.889Z,0.55
2023-04-01T02:54:07.417Z,0.50
2023-04-01T02:56:34.553Z,0.40
2023-04-01T02:59:01.744Z,0.57
2023-04-01T03:01:29.227Z,0.75
2023-04-01T03:03:56.446Z,0.55
2023-04-01T03:06:23.660Z,0.60
2023-04-01T03:08:51.040Z,0.50
2023-04-01T03:11:18.129Z,0.52
2023-04-01T03:13:45.447Z,0.65
2023-04-01T03:16:12.642Z,0.45
2023-04-01T03:18:39.872Z,0.60
2023-04-01T03:21:17.199Z,0.65
2023-04-01T03:23:44.455Z,0.60
2023-04-01T03:26:11.736Z,0.43
2023-04-01T03:28:39.127Z,0.60
2023-04-01T03:31:06.530Z,0.60
2023-04-01T03:33:33.978Z,0.88
2023-04-01T03:36:01.521Z,0.45
2023-04-01T03:38:28.726Z,0.63
2023-04-01T03:40:55.814Z,0.75
2023-04-01T03:43:23.244Z,0.40
2023-04-01T03:45:51.280Z,0.70
2023-04-01T03:48:18.584Z,0.40
2023-04-01T03:50:46.023Z,0.50
2023-04-01T03:53:13.207Z,0.65
2023-04-01T03:55:40.945Z,0.40
2023-04-01T03:58:08.931Z,0.57
2023-04-01T04:00:36.047Z,0.50
2023-04-01T04:03:03.743Z,0.60
2023-04-01T04:05:31.673Z,0.50
2023-04-01T04:07:59.301Z,0.50
2023-04-01T04:10:26.484Z,0.47
2023-04-01T04:12:53.970Z,0.80
2023-04-01T04:15:21.104Z,0.35
2023-04-01T04:17:48.547Z,0.40
2023-04-01T04:20:16.488Z,0.57
2023-04-01T04:22:43.612Z,0.60
2023-04-01T04:25:10.998Z,0.55
2023-04-01T04:27:38.213Z,0.40
2023-04-01T04:30:06.820Z,0.30
2023-04-01T04:32:33.973Z,0.47
2023-04-01T04:35:01.110Z,0.63
2023-04-01T04:37:28.212Z,0.50
2023-04-01T04:39:55.456Z,0.40
2023-04-01T04:42:22.653Z,0.52
2023-04-01T04:44:49.758Z,0.60
2023-04-01T04:47:16.966Z,0.60
2023-04-01T04:49:44.134Z,0.57
2023-04-01T04:52:11.399Z,0.52
2023-04-01T04:54:38.545Z,0.52
2023-04-01T04:57:05.751Z,0.52
2023-04-01T04:59:33.024Z,0.60
2023-04-01T05:02:00.343Z,0.38
2023-04-01T05:04:27.600Z,0.40
2023-04-01T05:06:54.752Z,0.55
2023-04-01T05:09:22.438Z,0.40
2023-04-01T05:11:49.734Z,0.47
2023-04-01T05:14:19.047Z,0.70
2023-04-01T05:16:46.213Z,0.52
2023-04-01T05:19:13.354Z,0.35
2023-04-01T05:21:40.515Z,0.50
2023-04-01T05:24:10.342Z,0.68
2023-04-01T05:26:38.043Z,0.50
2023-04-01T05:29:05.805Z,0.50
2023-04-01T05:31:32.994Z,0.60
2023-04-01T05:34:00.194Z,0.60
2023-04-01T05:36:27.376Z,0.50
2023-04-01T05:38:56.848Z,0.50
2023-04-01T05:41:24.006Z,0.60
2023-04-01T05:43:51.130Z,0.70
2023-04-01T05:46:18.354Z,0.60
2023-04-01T05:48:45.621Z,0.85
2023-04-01T05:51:16.608Z,0.77
2023-04-01T05:53:44.048Z,0.60
2023-04-01T05:56:11.243Z,0.50
2023-04-01T05:58:38.992Z,0.68
2023-04-01T06:01:11.469Z,0.60
2023-04-01T06:06:16.412Z,1.60
2023-04-01T06:11:24.836Z,0.60
2023-04-01T06:16:18.989Z,0.60
2023-04-01T06:19:06.475Z,0.50
2023-04-01T06:24:15.326Z,0.50
2023-04-01T06:27:02.731Z,0.93
2023-04-01T06:31:57.051Z,0.90
2023-04-01T06:34:38.173Z,0.88
2023-04-01T06:37:11.715Z,1.30
2023-04-01T06:39:41.671Z,0.80
2023-04-01T06:42:08.732Z,0.70
2023-04-01T06:44:42.302Z,1.20
2023-04-01T06:47:23.726Z,0.95
2023-04-01T06:49:58.384Z,0.60
2023-04-01T06:52:32.913Z,0.70
2023-04-01T06:55:10.806Z,0.80
2023-04-01T06:57:48.822Z,0.82
2023-04-01T07:00:30.852Z,0.75
2023-04-01T07:03:08.115Z,1.02
2023-04-01T07:05:37.104Z,0.70
2023-04-01T07:08:06.394Z,0.80
2023-04-01T07:10:44.907Z,0.77
2023-04-01T07:13:33.615Z,0.80
2023-04-01T07:16:06.652Z,1.20
2023-04-01T07:18:41.237Z,0.70
2023-04-01T07:21:12.323Z,0.90
2023-04-01T07:23:44.103Z,0.70
2023-04-01T07:26:21.785Z,0.68
2023-04-01T07:28:49.868Z,0.85
2023-04-01T07:31:36.028Z,0.85
2023-04-01T07:34:07.243Z,0.75
2023-04-01T07:36:37.817Z,0.70
2023-04-01T07:39:13.878Z,0.70
2023-04-01T07:41:57.195Z,0.70
2023-04-01T07:44:42.860Z,0.70
2023-04-01T07:47:36.345Z,0.70
2023-04-01T07:50:03.646Z,0.47
2023-04-01T07:52:37.884Z,0.50
2023-04-01T07:55:07.689Z,0.98
2023-04-01T07:57:51.485Z,0.70
2023-04-01T08:00:37.068Z,0.80
2023-04-01T08:03:22.989Z,0.80
2023-04-01T08:06:08.471Z,0.68
2023-04-01T08:08:48.912Z,0.70
2023-04-01T08:11:23.684Z,0.73
2023-04-01T08:13:57.738Z,0.60
2023-04-01T08:16:28.170Z,0.63
2023-04-01T08:19:01.644Z,0.65
2023-04-01T08:21:30.386Z,0.80
2023-04-01T08:24:06.901Z,0.65
2023-04-01T08:26:42.159Z,0.80
2023-04-01T08:29:18.370Z,1.20
2023-04-01T08:31:50.596Z,0.80
2023-04-01T08:34:21.250Z,0.80
2023-04-01T08:36:51.456Z,0.93
2023-04-01T08:39:22.145Z,0.70
2023-04-01T08:41:49.257Z,0.88
2023-04-01T08:44:36.703Z,0.90
2023-04-01T08:49:45.854Z,1.20
2023-04-01T08:52:32.902Z,1.10
2023-04-01T08:55:00.026Z,0.90
2023-04-01T08:57:45.379Z,0.80
2023-04-01T09:00:20.422Z,1.50
2023-04-01T09:02:52.217Z,0.75
2023-04-01T09:05:38.272Z,0.85
2023-04-01T09:08:24.565Z,1.10
2023-04-01T09:11:11.944Z,0.90
2023-04-01T09:16:14.874Z,1.00
2023-04-01T09:18:42.286Z,1.02
2023-04-01T09:21:11.994Z,1.10
2023-04-01T09:23:47.135Z,1.00
2023-04-01T09:28:52.732Z,1.00
2023-04-01T09:31:19.833Z,0.90
2023-04-01T09:34:04.985Z,0.90
2023-04-01T09:36:39.778Z,0.90
2023-04-01T09:39:25.412Z,1.08
2023-04-01T09:42:01.806Z,0.95
2023-04-01T09:44:35.780Z,0.98
2023-04-01T09:47:21.336Z,0.93
2023-04-01T09:49:51.662Z,0.95
2023-04-01T09:52:33.714Z,0.90
2023-04-01T09:55:07.595Z,1.20
2023-04-01T09:57:43.721Z,1.10
2023-04-01T10:00:34.366Z,0.90
2023-04-01T10:03:12.899Z,0.80
2023-04-01T10:06:06.438Z,0.80
2023-04-01T10:11:19.705Z,0.90
2023-04-01T10:13:58.414Z,0.88
2023-04-01T10:16:55.715Z,0.90
2023-04-01T10:19:32.044Z,0.88
2023-04-01T10:22:02.320Z,1.17
2023-04-01T10:24:47.998Z,1.05
2023-04-01T10:27:18.291Z,0.80
2023-04-01T10:30:06.836Z,1.08
2023-04-01T10:32:37.117Z,1.10
2023-04-01T10:35:10.366Z,0.98
2023-04-01T10:37:43.355Z,1.15
2023-04-01T10:40:16.331Z,0.93
2023-04-01T10:42:47.055Z,1.13
2023-04-01T10:45:29.244Z,1.13
2023-04-01T10:47:56.422Z,1.10
2023-04-01T10:50:52.882Z,1.13
2023-04-01T10:53:40.465Z,1.20
2023-04-01T10:56:26.684Z,1.10
2023-04-01T10:59:08.945Z,1.30
2023-04-01T11:01:36.573Z,1.08
2023-04-01T11:04:26.726Z,1.02
2023-04-01T11:07:26.369Z,1.27
2023-04-01T11:09:56.186Z,1.08
2023-04-01T11:12:41.752Z,1.20
2023-04-01T11:15:33.094Z,1.20
2023-04-01T11:18:00.420Z,1.20
2023-04-01T11:20:44.490Z,1.33
2023-04-01T11:23:30.132Z,1.23
2023-04-01T11:26:01.786Z,1.20
2023-04-01T11:28:55.041Z,0.88
2023-04-01T11:31:25.369Z,0.80
2023-04-01T11:34:13.491Z,1.33
2023-04-01T11:36:40.844Z,0.98
2023-04-01T11:39:10.743Z,1.10
2023-04-01T11:41:47.805Z,0.88
2023-04-01T11:44:21.803Z,0.95
2023-04-01T11:46:55.024Z,1.20
2023-04-01T11:49:31.781Z,1.10
2023-04-01T11:51:58.886Z,1.30
2023-04-01T11:54:31.880Z,1.00
2023-04-01T11:57:01.763Z,1.15
2023-04-01T11:59:50.408Z,1.08
2023-04-01T12:02:44.626Z,0.90
2023-04-01T12:05:31.564Z,1.15
2023-04-01T12:08:17.869Z,1.10
2023-04-01T12:10:54.106Z,0.93
2023-04-01T12:13:34.511Z,1.02
2023-04-01T12:16:25.994Z,1.00
2023-04-01T12:19:11.775Z,1.13
2023-04-01T12:21:40.795Z,1.00
2023-04-01T12:24:26.844Z,1.00
2023-04-01T12:26:53.938Z,1.17
2023-04-01T12:29:24.139Z,1.10
2023-04-01T12:32:11.621Z,0.98
2023-04-01T12:37:25.998Z,0.80
2023-04-01T12:39:53.110Z,1.00
2023-04-01T12:42:26.267Z,0.90
2023-04-01T12:44:53.353Z,1.00
2023-04-01T12:47:29.844Z,1.33
2023-04-01T12:49:57.080Z,1.10
2023-04-01T12:52:32.974Z,1.20
2023-04-01T12:55:01.012Z,1.08
2023-04-01T12:57:54.808Z,1.25
2023-04-01T13:02:49.023Z,1.08
2023-04-01T13:05:33.089Z,0.90
2023-04-01T13:08:06.567Z,1.00
2023-04-01T13:10:59.789Z,1.02
2023-04-01T13:13:33.023Z,1.05
2023-04-01T13:16:00.504Z,1.00
2023-04-01T13:18:27.830Z,1.17
2023-04-01T13:20:54.964Z,1.10
2023-04-01T13:23:44.802Z,1.10
2023-04-01T13:26:41.346Z,0.98
2023-04-01T13:29:12.929Z,0.95
2023-04-01T13:31:58.180Z,1.00
2023-04-01T13:34:39.552Z,1.05
2023-04-01T13:37:13.805Z,1.00
2023-04-01T13:39:56.130Z,1.10
2023-04-01T13:42:52.444Z,1.10
2023-04-01T13:45:36.331Z,0.98
2023-04-01T13:48:06.932Z,1.13
2023-04-01T13:50:52.596Z,0.95
2023-04-01T13:53:22.870Z,0.95
2023-04-01T13:56:08.304Z,1.20
2023-04-01T13:58:52.815Z,1.20
2023-04-01T14:01:26.011Z,1.35
2023-04-01T14:04:05.996Z,1.17
2023-04-01T14:06:38.821Z,1.25
2023-04-01T14:09:13.134Z,1.10
2023-04-01T14:11:47.138Z,1.00
2023-04-01T14:14:33.680Z,1.35
2023-04-01T14:17:08.539Z,1.15
2023-04-01T14:19:58.559Z,1.20
2023-04-01T14:22:28.829Z,1.02
2023-04-01T14:25:05.631Z,1.15
2023-04-01T14:27:39.005Z,1.20
2023-04-01T14:30:06.403Z,1.08
2023-04-01T14:32:41.958Z,1.00
2023-04-01T14:35:27.619Z,1.40
2023-04-01T14:38:04.535Z,1.10
2023-04-01T14:40:51.872Z,1.20
2023-04-01T14:43:38.813Z,1.30
2023-04-01T14:46:24.924Z,1.17
2023-04-01T14:48:58.167Z,1.00
2023-04-01T14:51:37.500Z,1.00
2023-04-01T14:54:13.495Z,1.02
2023-04-01T14:56:45.033Z,1.40
2023-04-01T14:59:32.418Z,1.33
2023-04-01T15:04:45.215Z,0.95
2023-04-01T15:07:21.944Z,1.25
2023-04-01T15:09:56.251Z,1.20
2023-04-01T15:12:23.448Z,1.20
2023-04-01T15:14:53.587Z,0.98
2023-04-01T15:17:22.051Z,1.15
2023-04-01T15:20:01.045Z,1.23
2023-04-01T15:22:39.569Z,1.08
2023-04-01T15:25:25.685Z,1.08
2023-04-01T15:28:01.933Z,1.27
2023-04-01T15:30:35.145Z,1.10
2023-04-01T15:33:11.187Z,1.13
2023-04-01T15:35:43.059Z,1.20
2023-04-01T15:38:18.660Z,1.10
2023-04-01T15:40:49.470Z,0.90
2023-04-01T15:43:28.891Z,1.10
2023-04-01T15:46:13.916Z,1.13
2023-04-01T15:48:41.050Z,1.05
2023-04-01T15:51:18.475Z,1.00
2023-04-01T15:53:54.888Z,1.20
2023-04-01T15:56:32.512Z,1.10
2023-04-01T15:59:08.699Z,1.40
2023-04-01T16:01:36.058Z,1.10
2023-04-01T16:04:03.237Z,1.10
2023-04-01T16:06:42.144Z,1.63
2023-04-01T16:09:15.496Z,1.30
2023-04-01T16:11:45.828Z,1.60
2023-04-01T16:14:19.019Z,1.55
2023-04-01T16:16:49.175Z,1.23
2023-04-01T16:19:35.454Z,1.42
2023-04-01T16:22:21.122Z,1.50
2023-04-01T16:24:48.389Z,1.30
2023-04-01T16:27:24.353Z,1.25
2023-04-01T16:29:54.500Z,1.35
2023-04-01T16:32:36.943Z,1.48
2023-04-01T16:35:37.120Z,1.42
2023-04-01T16:38:18.608Z,1.50
2023-04-01T16:41:12.888Z,1.27
2023-04-01T16:43:44.673Z,1.20
2023-04-01T16:46:30.760Z,1.13
2023-04-01T16:49:02.585Z,1.52
2023-04-01T16:51:48.565Z,1.00
2023-04-01T16:54:18.968Z,1.50
2023-04-01T16:57:04.788Z,1.23
2023-04-01T16:59:39.632Z,1.17
2023-04-01T17:02:12.506Z,1.20
2023-04-01T17:04:39.684Z,1.17
2023-04-01T17:07:09.885Z,1.00
2023-04-01T17:09:47.123Z,1.08
2023-04-01T17:12:23.326Z,1.25
2023-04-01T17:14:56.300Z,1.20
2023-04-01T17:17:29.416Z,1.52
2023-04-01T17:20:03.617Z,1.00
2023-04-01T17:23:00.686Z,1.38
2023-04-01T17:25:35.938Z,1.45
2023-04-01T17:28:11.547Z,1.10
2023-04-01T17:30:50.728Z,1.10
2023-04-01T17:33:20.493Z,1.15
2023-04-01T17:36:06.099Z,1.30
2023-04-01T17:38:51.563Z,1.30
2023-04-01T17:41:41.612Z,1.50
2023-04-01T17:44:24.959Z,1.10
2023-04-01T17:47:07.283Z,1.17
2023-04-01T17:49:36.875Z,1.00
2023-04-01T17:52:19.058Z,1.20
2023-04-01T17:54:46.168Z,1.13
2023-04-01T17:57:25.407Z,1.33
2023-04-01T17:59:52.511Z,1.27
2023-04-01T18:02:25.824Z,0.90
2023-04-01T18:04:52.976Z,1.08
2023-04-01T18:07:20.411Z,1.42
2023-04-01T18:09:53.811Z,1.75
2023-04-01T18:12:42.616Z,1.50
2023-04-01T18:15:27.631Z,1.65
2023-04-01T18:18:04.263Z,1.20
2023-04-01T18:20:47.466Z,1.42
2023-04-01T18:24:01.665Z,1.40
2023-04-01T18:26:38.072Z,1.23
2023-04-01T18:29:24.098Z,1.45
2023-04-01T18:31:53.746Z,1.30
2023-04-01T18:34:22.047Z,1.75
2023-04-01T18:36:57.253Z,0.93
2023-04-01T18:39:32.134Z,1.23
2023-04-01T18:42:09.611Z,1.30
2023-04-01T18:44:51.965Z,1.52
2023-04-01T18:47:22.009Z,1.10
2023-04-01T18:50:03.642Z,1.33
2023-04-01T18:52:36.230Z,1.00
2023-04-01T18:55:06.556Z,1.00
2023-04-01T18:57:57.518Z,1.23
2023-04-01T19:00:27.997Z,1.05
2023-04-01T19:03:14.179Z,1.10
2023-04-01T19:05:42.275Z,1.50
2023-04-01T19:08:28.731Z,1.10
2023-04-01T19:10:56.125Z,1.00
2023-04-01T19:13:26.281Z,1.08
2023-04-01T19:16:12.179Z,1.10
2023-04-01T19:18:51.358Z,1.08
2023-04-01T19:21:21.146Z,1.00
2023-04-01T19:23:48.253Z,0.90
2023-04-01T19:26:28.627Z,1.00
2023-04-01T19:29:14.327Z,1.00
2023-04-01T19:31:48.404Z,1.00
2023-04-01T19:34:28.729Z,0.88
2023-04-01T19:37:16.130Z,1.20
2023-04-01T19:42:22.598Z,0.95
2023-04-01T19:44:57.862Z,0.98
2023-04-01T19:47:44.008Z,0.93
2023-04-01T19:50:36.522Z,0.70
2023-04-01T19:53:16.451Z,0.90
2023-04-01T19:55:47.868Z,0.90
2023-04-01T19:58:29.018Z,0.92
2023-04-01T20:00:59.133Z,0.80
2023-04-01T20:03:32.525Z,0.90
2023-04-01T20:06:06.636Z,0.82
2023-04-01T20:08:46.934Z,1.08
2023-04-01T20:11:20.396Z,0.95
2023-04-01T20:13:55.347Z,0.98
2023-04-01T20:16:23.630Z,0.73
2023-04-01T20:18:54.737Z,1.42
2023-04-01T20:21:37.404Z,1.00
2023-04-01T20:24:23.358Z,0.98
2023-04-01T20:27:09.034Z,1.00
2023-04-01T20:29:38.920Z,0.80
2023-04-01T20:32:20.299Z,1.20
2023-04-01T20:34:59.453Z,0.90
2023-04-01T20:37:53.780Z,0.80
2023-04-01T20:40:21.159Z,0.80
2023-04-01T20:42:57.856Z,0.80
2023-04-01T20:45:25.503Z,0.90
2023-04-01T20:47:55.925Z,0.80
2023-04-01T20:50:31.666Z,0.95
2023-04-01T20:53:04.569Z,0.65
2023-04-01T20:55:31.831Z,0.88
2023-04-01T20:58:22.328Z,0.90
2023-04-01T21:00:49.442Z,1.23
2023-04-01T21:03:25.398Z,0.70
2023-04-01T21:06:04.641Z,0.80
2023-04-01T21:08:50.618Z,0.90
2023-04-01T21:11:19.345Z,0.80
2023-04-01T21:13:55.365Z,0.80
2023-04-01T21:16:41.389Z,0.85
2023-04-01T21:19:11.257Z,0.93
2023-04-01T21:21:56.987Z,0.90
2023-04-01T21:24:42.331Z,1.00
2023-04-01T21:27:36.088Z,0.70
2023-04-01T21:30:19.111Z,0.80
2023-04-01T21:33:08.573Z,0.80
2023-04-01T21:35:50.883Z,0.80
2023-04-01T21:38:18.128Z,0.93
2023-04-01T21:41:04.507Z,0.80
2023-04-01T21:43:31.743Z,0.85
2023-04-01T21:45:58.954Z,0.63
2023-04-01T21:48:32.087Z,1.10
2023-04-01T21:51:19.417Z,0.80
2023-04-01T21:56:24.564Z,0.88
2023-04-01T21:59:11.282Z,0.77
2023-04-01T22:01:53.407Z,0.80
2023-04-01T22:04:27.630Z,0.90
2023-04-01T22:07:03.205Z,0.80
2023-04-01T22:09:39.398Z,0.60
2023-04-01T22:12:15.933Z,0.90
2023-04-01T22:15:01.410Z,0.80
2023-04-01T22:17:37.707Z,0.90
2023-04-01T22:20:26.821Z,0.80
2023-04-01T22:23:01.714Z,0.75
2023-04-01T22:25:32.395Z,1.08
2023-04-01T22:27:59.676Z,0.70
2023-04-01T22:30:33.408Z,0.70
2023-04-01T22:33:07.341Z,1.08
2023-04-01T22:35:34.737Z,0.80
2023-04-01T22:38:11.141Z,0.68
2023-04-01T22:41:01.169Z,0.90
2023-04-01T22:43:38.404Z,0.82
2023-04-01T22:46:17.687Z,0.82
2023-04-01T22:48:50.389Z,0.77
2023-04-01T22:51:20.448Z,0.75
2023-04-01T22:53:54.191Z,0.63
2023-04-01T22:56:23.737Z,0.70
2023-04-01T22:59:03.414Z,0.85
2023-04-01T23:01:32.977Z,0.85
2023-04-01T23:04:00.624Z,0.95
2023-04-01T23:06:33.120Z,0.73
2023-04-01T23:09:08.042Z,0.80
2023-04-01T23:11:35.688Z,0.98
2023-04-01T23:14:05.042Z,0.80
2023-04-01T23:16:38.754Z,0.70
2023-04-01T23:19:24.713Z,0.80
2023-04-01T23:21:56.181Z,0.75
2023-04-01T23:24:27.696Z,0.85
2023-04-01T23:26:58.400Z,0.77
2023-04-01T23:29:26.905Z,0.80
2023-04-01T23:32:01.296Z,0.90
2023-04-01T23:34:31.715Z,0.70
2023-04-01T23:37:17.758Z,0.70
2023-04-01T23:39:49.228Z,0.82
2023-04-01T23:42:28.392Z,0.70
2023-04-01T23:44:57.809Z,0.68
2023-04-01T23:47:30.441Z,1.00
2023-04-01T23:50:18.144Z,0.85
2023-04-01T23:52:48.222Z,0.80
2023-04-01T23:55:19.382Z,0.80
2023-04-01T23:58:03.348Z,0.70
